F/V Mare Liberum — FVHW — position and weather

sailwx.info

Track history (hours):
 
Tides and Currents Weather Stations Pressure Air Temp Water Temp Dewpoint Dewpoint Depression Visibility Wind Speed Wind Dir Waves Ship Positions

F/V Mare Liberum

Last reported at 2016-Jul-30 18:33 UTC. Time now 2016-Jul-30 18:51 UTC.
Position N 47°01' W 002°18'.

Length 21 m.

Type: Fishing. MMSI: 227426000.

Date/timePositionNaut miles runAvg speedWind from/ knotsBaromVisibWave heightAir tempDewpointWater temp
2016-Jul-30 18:33N 47°01' W 002°18'0 0.0
2016-Jul-30 17:32N 47°01' W 002°18'0 0.0
2016-Jul-30 16:32N 47°01' W 002°18'0 0.0
2016-Jul-30 15:33N 47°01' W 002°18'0 0.0
2016-Jul-30 14:33N 47°01' W 002°18'0 0.2
2016-Jul-30 13:33N 47°02' W 002°18'0 0.1
2016-Jul-30 12:30N 47°02' W 002°18'5 5.0
2016-Jul-30 11:33N 47°00' W 002°25'21 2.5
2016-Jul-30 03:03N 46°53' W 002°54'1 1.9
2016-Jul-30 02:33N 46°53' W 002°55'3 0.5
2016-Jul-29 20:14N 46°51' W 002°59'0 0.0
2016-Jul-29 19:33N 46°51' W 002°59'8 1.7
2016-Jul-29 15:05N 46°52' W 003°11'11 6.5
2016-Jul-29 13:25N 46°51' W 002°55'1 0.9
2016-Jul-29 12:17N 46°51' W 002°53'3 4.4
2016-Jul-29 11:31N 46°53' W 002°49'1 0.4
2016-Jul-29 10:04N 46°53' W 002°48'1 2.3
2016-Jul-29 09:31N 46°52' W 002°49'2 1.7
2016-Jul-29 08:32N 46°50' W 002°50'3 2.5
2016-Jul-29 07:30N 46°50' W 002°54'1 1.2
2016-Jul-29 06:33N 46°49' W 002°56'0 0.0
2016-Jul-29 05:31N 46°49' W 002°56'0 0.0
2016-Jul-29 01:12N 46°49' W 002°56'0 0.0
2016-Jul-29 00:11N 46°49' W 002°56'0 0.0
2016-Jul-28 20:09N 46°49' W 002°56'4 0.6
2016-Jul-28 14:24N 46°52' W 002°60'3 1.4
2016-Jul-28 12:24N 46°53' W 002°57'2 2.3
2016-Jul-28 11:31N 46°52' W 002°59'7 1.2
2016-Jul-28 05:15N 46°56' W 002°50'0 0.7
2016-Jul-28 04:32N 46°56' W 002°50'4 3.5
2016-Jul-28 03:25N 46°58' W 002°44'11 8.6
2016-Jul-28 02:10N 46°60' W 002°29'6 8.8
2016-Jul-28 01:33N 47°01' W 002°21'2 0.1
2016-Jul-27 05:20N 47°01' W 002°18'0 0.0
2016-Jul-27 04:32N 47°01' W 002°18'0 0.0
2016-Jul-27 03:33N 47°01' W 002°18'0 0.0
2016-Jul-27 02:33N 47°01' W 002°18'0 0.0
2016-Jul-27 01:33N 47°01' W 002°18'0 0.0
2016-Jul-27 00:33N 47°01' W 002°18'0 0.0
2016-Jul-26 23:33N 47°01' W 002°18'0 0.0
2016-Jul-26 22:33N 47°01' W 002°18'0 0.0
2016-Jul-26 21:30N 47°01' W 002°18'0 0.0
2016-Jul-26 20:22N 47°01' W 002°18'0 0.0
2016-Jul-26 19:33N 47°01' W 002°18'0 0.0
2016-Jul-26 18:27N 47°01' W 002°18'0 0.1
2016-Jul-26 17:33N 47°02' W 002°18'28 4.5
2016-Jul-26 11:21N 46°51' W 002°56'5 1.1
2016-Jul-26 06:32N 46°53' W 002°49'2 0.5
2016-Jul-26 03:08N 46°52' W 002°51'4 0.6
2016-Jul-25 20:30N 46°54' W 002°57'8 1.8
2016-Jul-25 16:09N 46°50' W 002°47'2 2.4
2016-Jul-25 15:26N 46°48' W 002°47'9 3.1
2016-Jul-25 12:33N 46°57' W 002°50'1 1.3
2016-Jul-25 11:27N 46°56' W 002°51'20 2.9
2016-Jul-25 04:33N 47°01' W 002°22'3 3.1
2016-Jul-25 03:33N 47°01' W 002°18'0 0.0
2016-Jul-25 02:33N 47°01' W 002°18'0 0.0
2016-Jul-25 01:34N 47°01' W 002°18'0 0.0
2016-Jul-25 00:33N 47°01' W 002°18'0 0.0
2016-Jul-24 23:33N 47°01' W 002°18'0 0.0
2016-Jul-24 22:33N 47°01' W 002°18'0 0.0
2016-Jul-24 21:33N 47°01' W 002°18'0 0.0
2016-Jul-24 20:33N 47°01' W 002°18'0 0.0
2016-Jul-24 19:33N 47°01' W 002°18'0 0.0
2016-Jul-24 18:34N 47°01' W 002°18'0 0.0
2016-Jul-24 17:33N 47°01' W 002°18'0 0.0
2016-Jul-24 16:33N 47°01' W 002°18'0 0.0
2016-Jul-24 15:31N 47°01' W 002°18'0 0.0
2016-Jul-24 14:31N 47°01' W 002°18'0 0.0
2016-Jul-24 13:33N 47°01' W 002°18'0 0.0
2016-Jul-24 12:34N 47°01' W 002°18'0 0.0
2016-Jul-24 11:34N 47°01' W 002°18'0 0.0
2016-Jul-24 10:34N 47°01' W 002°18'0 0.0
2016-Jul-24 09:33N 47°01' W 002°18'0 0.0
2016-Jul-24 08:34N 47°01' W 002°18'0 0.0
2016-Jul-24 07:33N 47°01' W 002°18'0 0.0
2016-Jul-24 06:33N 47°01' W 002°18'0 0.0
2016-Jul-24 05:33N 47°01' W 002°18'0 0.0
2016-Jul-24 04:31N 47°01' W 002°18'0 0.0
2016-Jul-24 03:33N 47°01' W 002°18'0 0.0
2016-Jul-24 02:33N 47°01' W 002°18'0 0.0
2016-Jul-24 01:27N 47°01' W 002°18'0 0.0
2016-Jul-24 00:34N 47°01' W 002°18'0 0.0
2016-Jul-23 23:32N 47°01' W 002°18'0 0.0
2016-Jul-23 22:33N 47°01' W 002°18'0 0.0
2016-Jul-23 21:26N 47°01' W 002°18'0 0.0
2016-Jul-23 20:33N 47°01' W 002°18'0 0.0
2016-Jul-23 19:31N 47°01' W 002°18'0 0.0
2016-Jul-23 18:34N 47°01' W 002°18'0 0.0
2016-Jul-23 17:32N 47°01' W 002°18'0 0.0
2016-Jul-23 16:33N 47°01' W 002°18'0 0.0
2016-Jul-23 15:33N 47°01' W 002°18'0 0.0
2016-Jul-23 14:33N 47°01' W 002°18'0 0.0
2016-Jul-23 13:34N 47°01' W 002°18'0 0.0
2016-Jul-23 12:33N 47°01' W 002°18'0 0.0
2016-Jul-23 11:33N 47°01' W 002°18'0 0.0
2016-Jul-23 10:31N 47°01' W 002°18'0 0.0
2016-Jul-23 09:33N 47°01' W 002°18'0 0.0
2016-Jul-23 08:34N 47°01' W 002°18'0 0.0
2016-Jul-23 07:34N 47°01' W 002°18'0 0.0
2016-Jul-23 06:33N 47°01' W 002°18'0 0.2
2016-Jul-23 04:33N 47°02' W 002°18'8 8.1
2016-Jul-23 03:32N 46°57' W 002°28'8 8.5
2016-Jul-23 02:33N 46°52' W 002°38'0 0.4
2016-Jul-23 01:29N 46°52' W 002°38'0 0.3
2016-Jul-23 00:34N 46°52' W 002°39'0 0.4
2016-Jul-22 23:33N 46°53' W 002°39'1 0.9
2016-Jul-22 22:33N 46°53' W 002°39'1 1.3
2016-Jul-22 21:33N 46°55' W 002°39'2 2.4
2016-Jul-22 20:33N 46°54' W 002°42'5 4.7
2016-Jul-22 19:33N 46°52' W 002°48'4 3.5
2016-Jul-22 18:33N 46°52' W 002°54'1 0.5
2016-Jul-22 17:15N 46°52' W 002°54'1 0.7
2016-Jul-22 16:33N 46°51' W 002°54'3 3.0
2016-Jul-22 15:24N 46°53' W 002°49'5 4.6
2016-Jul-22 14:17N 46°49' W 002°45'2 1.3
2016-Jul-22 12:29N 46°51' W 002°47'1 0.1
2016-Jul-21 23:33N 46°52' W 002°48'0 0.1
2016-Jul-21 22:33N 46°52' W 002°48'0 0.1
2016-Jul-21 21:33N 46°52' W 002°48'0 0.0
2016-Jul-21 20:33N 46°52' W 002°48'0 0.0
2016-Jul-21 19:33N 46°52' W 002°48'0 0.0
2016-Jul-21 18:33N 46°52' W 002°48'0 0.1
2016-Jul-21 17:33N 46°52' W 002°48'0 0.1
2016-Jul-21 15:30N 46°52' W 002°47'20 1.4
2016-Jul-21 01:34N 47°01' W 002°21'2 2.1
2016-Jul-21 00:32N 47°01' W 002°18'0 0.0
2016-Jul-20 23:32N 47°01' W 002°18'0 0.0
2016-Jul-20 22:26N 47°01' W 002°18'0 0.0
2016-Jul-20 21:24N 47°01' W 002°18'0 0.0
2016-Jul-20 20:32N 47°01' W 002°18'0 0.0
2016-Jul-20 19:20N 47°01' W 002°18'  
Track history (hours):
 
Tides and Currents Weather Stations Pressure Air Temp Water Temp Dewpoint Dewpoint Depression Visibility Wind Speed Wind Dir Waves Ship Positions

F/V Mare Liberum

Last reported at 2016-Jul-30 18:33 UTC. Time now 2016-Jul-30 18:51 UTC.
Position N 47°01' W 002°18'.

Length 21 m.

Type: Fishing. MMSI: 227426000.

Date/timePositionNaut miles runAvg speedWind from/ knotsBaromVisibWave heightAir tempDewpointWater temp
2016-Jul-30 18:33N 47°01' W 002°18'0 0.0
2016-Jul-30 17:32N 47°01' W 002°18'0 0.0
2016-Jul-30 16:32N 47°01' W 002°18'0 0.0
2016-Jul-30 15:33N 47°01' W 002°18'0 0.0
2016-Jul-30 14:33N 47°01' W 002°18'0 0.2
2016-Jul-30 13:33N 47°02' W 002°18'0 0.1
2016-Jul-30 12:30N 47°02' W 002°18'5 5.0
2016-Jul-30 11:33N 47°00' W 002°25'21 2.5
2016-Jul-30 03:03N 46°53' W 002°54'1 1.9
2016-Jul-30 02:33N 46°53' W 002°55'3 0.5
2016-Jul-29 20:14N 46°51' W 002°59'0 0.0
2016-Jul-29 19:33N 46°51' W 002°59'8 1.7
2016-Jul-29 15:05N 46°52' W 003°11'11 6.5
2016-Jul-29 13:25N 46°51' W 002°55'1 0.9
2016-Jul-29 12:17N 46°51' W 002°53'3 4.4
2016-Jul-29 11:31N 46°53' W 002°49'1 0.4
2016-Jul-29 10:04N 46°53' W 002°48'1 2.3
2016-Jul-29 09:31N 46°52' W 002°49'2 1.7
2016-Jul-29 08:32N 46°50' W 002°50'3 2.5
2016-Jul-29 07:30N 46°50' W 002°54'1 1.2
2016-Jul-29 06:33N 46°49' W 002°56'0 0.0
2016-Jul-29 05:31N 46°49' W 002°56'0 0.0
2016-Jul-29 01:12N 46°49' W 002°56'0 0.0
2016-Jul-29 00:11N 46°49' W 002°56'0 0.0
2016-Jul-28 20:09N 46°49' W 002°56'4 0.6
2016-Jul-28 14:24N 46°52' W 002°60'3 1.4
2016-Jul-28 12:24N 46°53' W 002°57'2 2.3
2016-Jul-28 11:31N 46°52' W 002°59'7 1.2
2016-Jul-28 05:15N 46°56' W 002°50'0 0.7
2016-Jul-28 04:32N 46°56' W 002°50'4 3.5
2016-Jul-28 03:25N 46°58' W 002°44'11 8.6
2016-Jul-28 02:10N 46°60' W 002°29'6 8.8
2016-Jul-28 01:33N 47°01' W 002°21'2 0.1
2016-Jul-27 05:20N 47°01' W 002°18'0 0.0
2016-Jul-27 04:32N 47°01' W 002°18'0 0.0
2016-Jul-27 03:33N 47°01' W 002°18'0 0.0
2016-Jul-27 02:33N 47°01' W 002°18'0 0.0
2016-Jul-27 01:33N 47°01' W 002°18'0 0.0
2016-Jul-27 00:33N 47°01' W 002°18'0 0.0
2016-Jul-26 23:33N 47°01' W 002°18'0 0.0
2016-Jul-26 22:33N 47°01' W 002°18'0 0.0
2016-Jul-26 21:30N 47°01' W 002°18'0 0.0
2016-Jul-26 20:22N 47°01' W 002°18'0 0.0
2016-Jul-26 19:33N 47°01' W 002°18'0 0.0
2016-Jul-26 18:27N 47°01' W 002°18'0 0.1
2016-Jul-26 17:33N 47°02' W 002°18'28 4.5
2016-Jul-26 11:21N 46°51' W 002°56'5 1.1
2016-Jul-26 06:32N 46°53' W 002°49'2 0.5
2016-Jul-26 03:08N 46°52' W 002°51'4 0.6
2016-Jul-25 20:30N 46°54' W 002°57'8 1.8
2016-Jul-25 16:09N 46°50' W 002°47'2 2.4
2016-Jul-25 15:26N 46°48' W 002°47'9 3.1
2016-Jul-25 12:33N 46°57' W 002°50'1 1.3
2016-Jul-25 11:27N 46°56' W 002°51'20 2.9
2016-Jul-25 04:33N 47°01' W 002°22'3 3.1
2016-Jul-25 03:33N 47°01' W 002°18'0 0.0
2016-Jul-25 02:33N 47°01' W 002°18'0 0.0
2016-Jul-25 01:34N 47°01' W 002°18'0 0.0
2016-Jul-25 00:33N 47°01' W 002°18'0 0.0
2016-Jul-24 23:33N 47°01' W 002°18'0 0.0
2016-Jul-24 22:33N 47°01' W 002°18'0 0.0
2016-Jul-24 21:33N 47°01' W 002°18'0 0.0
2016-Jul-24 20:33N 47°01' W 002°18'0 0.0
2016-Jul-24 19:33N 47°01' W 002°18'0 0.0
2016-Jul-24 18:34N 47°01' W 002°18'0 0.0
2016-Jul-24 17:33N 47°01' W 002°18'0 0.0
2016-Jul-24 16:33N 47°01' W 002°18'0 0.0
2016-Jul-24 15:31N 47°01' W 002°18'0 0.0
2016-Jul-24 14:31N 47°01' W 002°18'0 0.0
2016-Jul-24 13:33N 47°01' W 002°18'0 0.0
2016-Jul-24 12:34N 47°01' W 002°18'0 0.0
2016-Jul-24 11:34N 47°01' W 002°18'0 0.0
2016-Jul-24 10:34N 47°01' W 002°18'0 0.0
2016-Jul-24 09:33N 47°01' W 002°18'0 0.0
2016-Jul-24 08:34N 47°01' W 002°18'0 0.0
2016-Jul-24 07:33N 47°01' W 002°18'0 0.0
2016-Jul-24 06:33N 47°01' W 002°18'0 0.0
2016-Jul-24 05:33N 47°01' W 002°18'0 0.0
2016-Jul-24 04:31N 47°01' W 002°18'0 0.0
2016-Jul-24 03:33N 47°01' W 002°18'0 0.0
2016-Jul-24 02:33N 47°01' W 002°18'0 0.0
2016-Jul-24 01:27N 47°01' W 002°18'0 0.0
2016-Jul-24 00:34N 47°01' W 002°18'0 0.0
2016-Jul-23 23:32N 47°01' W 002°18'0 0.0
2016-Jul-23 22:33N 47°01' W 002°18'0 0.0
2016-Jul-23 21:26N 47°01' W 002°18'0 0.0
2016-Jul-23 20:33N 47°01' W 002°18'0 0.0
2016-Jul-23 19:31N 47°01' W 002°18'0 0.0
2016-Jul-23 18:34N 47°01' W 002°18'0 0.0
2016-Jul-23 17:32N 47°01' W 002°18'0 0.0
2016-Jul-23 16:33N 47°01' W 002°18'0 0.0
2016-Jul-23 15:33N 47°01' W 002°18'0 0.0
2016-Jul-23 14:33N 47°01' W 002°18'0 0.0
2016-Jul-23 13:34N 47°01' W 002°18'0 0.0
2016-Jul-23 12:33N 47°01' W 002°18'0 0.0
2016-Jul-23 11:33N 47°01' W 002°18'0 0.0
2016-Jul-23 10:31N 47°01' W 002°18'0 0.0
2016-Jul-23 09:33N 47°01' W 002°18'0 0.0
2016-Jul-23 08:34N 47°01' W 002°18'0 0.0
2016-Jul-23 07:34N 47°01' W 002°18'0 0.0
2016-Jul-23 06:33N 47°01' W 002°18'0 0.2
2016-Jul-23 04:33N 47°02' W 002°18'8 8.1
2016-Jul-23 03:32N 46°57' W 002°28'8 8.5
2016-Jul-23 02:33N 46°52' W 002°38'0 0.4
2016-Jul-23 01:29N 46°52' W 002°38'0 0.3
2016-Jul-23 00:34N 46°52' W 002°39'0 0.4
2016-Jul-22 23:33N 46°53' W 002°39'1 0.9
2016-Jul-22 22:33N 46°53' W 002°39'1 1.3
2016-Jul-22 21:33N 46°55' W 002°39'2 2.4
2016-Jul-22 20:33N 46°54' W 002°42'5 4.7
2016-Jul-22 19:33N 46°52' W 002°48'4 3.5
2016-Jul-22 18:33N 46°52' W 002°54'1 0.5
2016-Jul-22 17:15N 46°52' W 002°54'1 0.7
2016-Jul-22 16:33N 46°51' W 002°54'3 3.0
2016-Jul-22 15:24N 46°53' W 002°49'5 4.6
2016-Jul-22 14:17N 46°49' W 002°45'2 1.3
2016-Jul-22 12:29N 46°51' W 002°47'1 0.1
2016-Jul-21 23:33N 46°52' W 002°48'0 0.1
2016-Jul-21 22:33N 46°52' W 002°48'0 0.1
2016-Jul-21 21:33N 46°52' W 002°48'0 0.0
2016-Jul-21 20:33N 46°52' W 002°48'0 0.0
2016-Jul-21 19:33N 46°52' W 002°48'0 0.0
2016-Jul-21 18:33N 46°52' W 002°48'0 0.1
2016-Jul-21 17:33N 46°52' W 002°48'0 0.1
2016-Jul-21 15:30N 46°52' W 002°47'20 1.4
2016-Jul-21 01:34N 47°01' W 002°21'2 2.1
2016-Jul-21 00:32N 47°01' W 002°18'0 0.0
2016-Jul-20 23:32N 47°01' W 002°18'0 0.0
2016-Jul-20 22:26N 47°01' W 002°18'0 0.0
2016-Jul-20 21:24N 47°01' W 002°18'0 0.0
2016-Jul-20 20:32N 47°01' W 002°18'0 0.0
2016-Jul-20 19:20N 47°01' W 002°18'  

Dump ship's entire track history